Time;durP1;ratioP1;P1;durP2;ratioP2;P2;SDS_P1;SDS_P2;PMS_P1;PMS_P2;Temp;Humidity;BMP_temperature;BMP_pressure;BME280_temperature;BME280_humidity;BME280_pressure;Samples;Min_cycle;Max_cycle;Signal;HPM_P1;HPM_P2
2022/05/29 00:02:09;;;;;;;11.85;2.95;;;;;;;;;;5103169;28;20031;-68
2022/05/29 00:04:34;;;;;;;8.23;2.33;;;;;;;;;;5106880;28;20475;-68
2022/05/29 00:07:00;;;;;;;5.43;2.15;;;;;;;;;;5109764;28;20057;-68
2022/05/29 00:09:31;;;;;;;6.68;2.50;;;;;;;;;;5105986;28;20067;-68
2022/05/29 00:11:56;;;;;;;12.40;2.80;;;;;;;;;;5107538;28;20537;-68
2022/05/29 00:14:22;;;;;;;7.30;2.25;;;;;;;;;;5108615;28;20054;-68
2022/05/29 00:16:47;;;;;;;11.00;2.20;;;;;;;;;;5108290;28;20059;-68
2022/05/29 00:19:13;;;;;;;7.40;2.25;;;;;;;;;;5103546;28;20020;-68
2022/05/29 00:21:38;;;;;;;6.15;2.45;;;;;;;;;;5103724;28;20482;-68
2022/05/29 00:24:06;;;;;;;6.93;2.30;;;;;;;;;;5107276;28;20044;-68
2022/05/29 00:26:31;;;;;;;10.07;2.70;;;;;;;;;;5102437;28;20020;-68
2022/05/29 00:28:57;;;;;;;5.20;2.40;;;;;;;;;;5111847;28;20046;-68
2022/05/29 00:31:22;;;;;;;8.27;2.78;;;;;;;;;;5105252;28;20038;-68
2022/05/29 00:33:47;;;;;;;8.43;2.50;;;;;;;;;;5113361;28;20094;-68
2022/05/29 00:36:14;;;;;;;7.20;2.60;;;;;;;;;;5112529;28;20047;-68
2022/05/29 00:38:40;;;;;;;7.07;3.20;;;;;;;;;;5109549;28;20051;-68
2022/05/29 00:41:27;;;;;;;6.82;2.67;;;;;;;;;;5112040;28;20463;-68
2022/05/29 00:44:14;;;;;;;7.95;2.60;;;;;;;;;;5105884;28;20867;-69
2022/05/29 00:46:47;;;;;;;7.78;2.45;;;;;;;;;;5109715;28;20055;-68
2022/05/29 00:49:13;;;;;;;6.80;2.33;;;;;;;;;;5111346;28;20045;-68
2022/05/29 00:51:43;;;;;;;8.80;2.42;;;;;;;;;;5106729;28;20383;-68
2022/05/29 00:54:08;;;;;;;5.03;2.17;;;;;;;;;;5104462;28;20528;-68
2022/05/29 00:56:35;;;;;;;5.20;2.75;;;;;;;;;;5109765;28;20020;-68
2022/05/29 00:59:01;;;;;;;10.15;2.53;;;;;;;;;;5104650;28;21524;-68
2022/05/29 01:01:27;;;;;;;6.07;2.63;;;;;;;;;;5104756;28;20031;-68
2022/05/29 01:03:52;;;;;;;6.32;3.08;;;;;;;;;;5107824;28;20390;-68
2022/05/29 01:06:18;;;;;;;11.57;3.05;;;;;;;;;;5107662;28;20030;-68
2022/05/29 01:08:43;;;;;;;5.97;2.47;;;;;;;;;;5105954;28;20106;-68
2022/05/29 01:11:08;;;;;;;12.00;2.72;;;;;;;;;;5104302;28;20110;-68
2022/05/29 01:13:50;;;;;;;14.85;2.75;;;;;;;;;;5108832;28;20063;-68
2022/05/29 01:16:26;;;;;;;7.60;3.13;;;;;;;;;;5107287;28;20027;-68
2022/05/29 01:19:11;;;;;;;6.13;2.25;;;;;;;;;;5102482;28;20023;-68
2022/05/29 01:21:50;;;;;;;8.88;2.78;;;;;;;;;;5111859;28;20031;-68
2022/05/29 01:24:32;;;;;;;11.18;3.17;;;;;;;;;;5098809;28;20031;-68
2022/05/29 01:27:29;;;;;;;7.20;2.50;;;;;;;;;;5114263;28;20019;-68
2022/05/29 01:30:03;;;;;;;7.07;2.85;;;;;;;;;;5107880;28;20028;-67
2022/05/29 01:32:28;;;;;;;;;;;;;;;;;;5113972;28;20110;-68
2022/05/29 01:34:55;;;;;;;11.95;2.50;;;;;;;;;;5101290;28;19955;-68
2022/05/29 01:37:21;;;;;;;5.82;2.47;;;;;;;;;;5106749;28;20043;-68
2022/05/29 01:39:57;;;;;;;9.48;2.60;;;;;;;;;;5105156;28;20486;-68
2022/05/29 01:42:28;;;;;;;5.40;2.95;;;;;;;;;;5105724;28;20412;-69
2022/05/29 01:44:57;;;;;;;10.73;2.97;;;;;;;;;;5109281;28;20064;-68
2022/05/29 01:47:24;;;;;;;9.75;3.00;;;;;;;;;;5103346;28;20035;-68
2022/05/29 01:49:56;;;;;;;7.65;2.95;;;;;;;;;;5104281;28;20024;-68
2022/05/29 01:52:27;;;;;;;6.80;2.67;;;;;;;;;;5107626;28;20036;-68
2022/05/29 01:54:54;;;;;;;6.47;2.53;;;;;;;;;;5103662;28;20016;-68
2022/05/29 01:57:32;;;;;;;6.85;2.58;;;;;;;;;;5101784;28;20032;-68
2022/05/29 01:59:57;;;;;;;5.93;2.35;;;;;;;;;;5104491;28;20043;-68
2022/05/29 02:02:41;;;;;;;5.97;2.63;;;;;;;;;;5106808;28;20031;-68
2022/05/29 02:05:14;;;;;;;9.90;2.55;;;;;;;;;;5112173;28;20463;-68
2022/05/29 02:07:50;;;;;;;9.55;2.60;;;;;;;;;;5103544;28;20482;-68
2022/05/29 02:10:28;;;;;;;8.60;2.83;;;;;;;;;;5109737;28;20042;-68
2022/05/29 02:13:06;;;;;;;9.32;2.50;;;;;;;;;;5105145;28;20042;-68
2022/05/29 02:15:39;;;;;;;8.90;2.70;;;;;;;;;;5105719;28;20384;-68
2022/05/29 02:18:07;;;;;;;8.45;3.17;;;;;;;;;;5110549;28;20039;-68
2022/05/29 02:20:36;;;;;;;6.47;2.47;;;;;;;;;;5108246;28;20035;-68
2022/05/29 02:23:08;;;;;;;12.95;2.60;;;;;;;;;;5107679;28;20042;-68
2022/05/29 02:25:34;;;;;;;4.85;2.53;;;;;;;;;;5103798;28;20374;-68
2022/05/29 02:28:12;;;;;;;9.13;2.80;;;;;;;;;;5105776;28;20028;-68
2022/05/29 02:30:57;;;;;;;11.35;3.35;;;;;;;;;;5103259;28;20028;-68
2022/05/29 02:33:31;;;;;;;10.93;2.88;;;;;;;;;;5103132;28;20406;-68
2022/05/29 02:36:19;;;;;;;7.68;2.53;;;;;;;;;;5103374;28;20487;-68
2022/05/29 02:39:11;;;;;;;10.32;2.72;;;;;;;;;;5103461;28;20134;-68
2022/05/29 02:41:44;;;;;;;8.65;2.35;;;;;;;;;;5075250;28;20048;-68
2022/05/29 02:44:17;;;;;;;6.85;2.90;;;;;;;;;;5103715;28;20055;-68
2022/05/29 02:46:50;;;;;;;11.02;2.70;;;;;;;;;;5100489;28;20058;-68
2022/05/29 02:49:30;;;;;;;4.30;2.67;;;;;;;;;;5085013;28;20390;-68
2022/05/29 02:51:58;;;;;;;6.70;2.90;;;;;;;;;;5103179;28;20035;-68
2022/05/29 02:54:27;;;;;;;7.82;3.00;;;;;;;;;;5099095;28;20032;-68
2022/05/29 02:56:53;;;;;;;16.33;3.55;;;;;;;;;;5106951;28;20019;-68
2022/05/29 02:59:20;;;;;;;13.13;3.58;;;;;;;;;;5103696;28;20038;-68
2022/05/29 03:01:54;;;;;;;11.23;3.45;;;;;;;;;;5095350;28;20032;-68
2022/05/29 03:04:29;;;;;;;11.38;3.22;;;;;;;;;;5109169;28;20027;-68
2022/05/29 03:06:54;;;;;;;9.55;3.72;;;;;;;;;;5099899;28;21149;-68
2022/05/29 03:09:31;;;;;;;11.23;3.47;;;;;;;;;;5104756;28;20523;-68
2022/05/29 03:11:57;;;;;;;8.75;3.85;;;;;;;;;;5107840;28;20032;-68
2022/05/29 03:14:28;;;;;;;10.98;3.35;;;;;;;;;;5109923;28;20551;-68
2022/05/29 03:17:02;;;;;;;13.20;3.78;;;;;;;;;;5101618;28;20028;-68
2022/05/29 03:19:50;;;;;;;7.82;3.53;;;;;;;;;;5097613;28;20035;-68
2022/05/29 03:22:22;;;;;;;11.45;3.20;;;;;;;;;;5100255;28;20375;-67
2022/05/29 03:25:04;;;;;;;8.48;3.42;;;;;;;;;;5106750;28;20020;-68
2022/05/29 03:27:29;;;;;;;12.15;3.22;;;;;;;;;;5105711;28;20459;-68
2022/05/29 03:30:05;;;;;;;9.38;3.25;;;;;;;;;;5103426;28;20073;-67
2022/05/29 03:32:31;;;;;;;10.75;3.33;;;;;;;;;;5107610;28;20036;-68
2022/05/29 03:34:56;;;;;;;10.25;3.45;;;;;;;;;;5101101;28;20020;-68
2022/05/29 03:37:22;;;;;;;11.90;3.10;;;;;;;;;;5111118;28;20122;-68
2022/05/29 03:39:47;;;;;;;11.90;3.17;;;;;;;;;;5113888;28;20018;-68
2022/05/29 03:42:12;;;;;;;7.60;3.33;;;;;;;;;;5108404;28;20059;-68
2022/05/29 03:44:38;;;;;;;10.73;3.13;;;;;;;;;;5101705;28;20035;-68
2022/05/29 03:47:03;;;;;;;16.90;3.92;;;;;;;;;;5103186;28;20369;-68
2022/05/29 03:49:29;;;;;;;10.63;3.20;;;;;;;;;;5107297;28;20032;-68
2022/05/29 03:51:54;;;;;;;8.73;3.88;;;;;;;;;;5114310;28;20054;-68
2022/05/29 03:54:20;;;;;;;7.70;2.92;;;;;;;;;;5107174;28;20016;-68
2022/05/29 03:56:45;;;;;;;9.15;3.35;;;;;;;;;;5113363;28;20030;-68
2022/05/29 03:59:11;;;;;;;10.30;3.10;;;;;;;;;;5109371;28;20395;-68
2022/05/29 04:01:36;;;;;;;7.30;3.20;;;;;;;;;;5110595;28;20136;-68
2022/05/29 04:04:02;;;;;;;8.32;3.35;;;;;;;;;;5112148;28;20028;-68
2022/05/29 04:06:28;;;;;;;7.20;3.50;;;;;;;;;;5112890;28;20027;-68
2022/05/29 04:14:23;;;;;;;8.48;3.05;;;;;;;;;;5108091;28;20046;-68
2022/05/29 04:16:49;;;;;;;7.95;3.05;;;;;;;;;;5100192;28;20028;-68
2022/05/29 04:19:14;;;;;;;6.43;2.20;;;;;;;;;;5105296;28;20493;-68
2022/05/29 04:21:39;;;;;;;6.25;2.55;;;;;;;;;;5110231;28;20023;-68
2022/05/29 04:24:05;;;;;;;6.07;2.67;;;;;;;;;;5109548;28;20492;-68
2022/05/29 04:26:30;;;;;;;7.82;2.90;;;;;;;;;;5099956;28;20035;-68
2022/05/29 04:28:55;;;;;;;8.45;2.30;;;;;;;;;;5109863;28;20479;-68
2022/05/29 04:31:20;;;;;;;6.50;2.28;;;;;;;;;;5107106;28;20019;-68
2022/05/29 04:33:46;;;;;;;10.02;2.17;;;;;;;;;;5109338;28;20032;-68
2022/05/29 04:36:11;;;;;;;8.25;2.60;;;;;;;;;;5093087;28;20414;-68
2022/05/29 04:38:37;;;;;;;5.57;2.20;;;;;;;;;;5108517;28;20024;-68
2022/05/29 04:41:06;;;;;;;6.88;2.47;;;;;;;;;;5104328;28;20040;-68
2022/05/29 04:43:31;;;;;;;8.93;2.35;;;;;;;;;;5108622;28;20020;-68
2022/05/29 04:45:57;;;;;;;13.75;2.95;;;;;;;;;;5104010;28;20040;-68
2022/05/29 04:48:22;;;;;;;7.22;2.15;;;;;;;;;;5103074;28;20030;-68
2022/05/29 04:50:48;;;;;;;7.78;2.50;;;;;;;;;;5109046;28;20467;-68
2022/05/29 04:53:13;;;;;;;5.35;2.25;;;;;;;;;;5111913;28;20036;-68
2022/05/29 04:55:39;;;;;;;6.25;2.28;;;;;;;;;;5103610;28;20032;-68
2022/05/29 04:58:05;;;;;;;5.70;2.22;;;;;;;;;;5104308;28;20028;-68
2022/05/29 05:00:31;;;;;;;11.25;3.10;;;;;;;;;;5104805;28;20044;-68
2022/05/29 05:02:56;;;;;;;5.63;2.63;;;;;;;;;;5106881;28;20035;-68
2022/05/29 05:05:21;;;;;;;6.28;2.75;;;;;;;;;;5108492;28;20024;-68
2022/05/29 05:07:46;;;;;;;5.82;2.50;;;;;;;;;;5104342;28;20051;-69
2022/05/29 05:10:15;;;;;;;7.28;2.58;;;;;;;;;;5105692;28;20034;-68
2022/05/29 05:12:40;;;;;;;6.93;1.80;;;;;;;;;;5099333;28;20107;-69
2022/05/29 05:15:06;;;;;;;5.32;1.83;;;;;;;;;;5102956;28;20111;-68
2022/05/29 05:17:31;;;;;;;5.45;1.75;;;;;;;;;;5101676;28;20032;-68
2022/05/29 05:19:56;;;;;;;29.52;2.75;;;;;;;;;;5106454;28;20467;-68
2022/05/29 05:22:22;;;;;;;15.80;2.28;;;;;;;;;;5103215;28;20387;-68
2022/05/29 05:24:48;;;;;;;4.97;1.60;;;;;;;;;;5102532;28;20473;-69
2022/05/29 05:27:14;;;;;;;3.63;1.70;;;;;;;;;;5110194;28;20016;-68
2022/05/29 05:29:39;;;;;;;2.15;1.17;;;;;;;;;;5110752;28;20107;-68
2022/05/29 05:32:05;;;;;;;3.70;1.40;;;;;;;;;;5107540;28;20441;-69
2022/05/29 05:34:31;;;;;;;5.40;1.30;;;;;;;;;;5103050;28;20360;-69
2022/05/29 05:36:56;;;;;;;3.97;1.38;;;;;;;;;;5106715;28;20127;-69
2022/05/29 05:39:22;;;;;;;3.25;1.25;;;;;;;;;;5108408;28;20080;-69
2022/05/29 05:41:47;;;;;;;3.05;1.10;;;;;;;;;;5101807;28;20032;-69
2022/05/29 05:44:12;;;;;;;2.60;1.40;;;;;;;;;;5104607;28;20023;-68
2022/05/29 05:46:42;;;;;;;2.72;1.00;;;;;;;;;;5104145;28;20028;-68
2022/05/29 05:49:08;;;;;;;3.53;1.15;;;;;;;;;;5109116;28;20023;-68
2022/05/29 05:51:33;;;;;;;3.53;1.33;;;;;;;;;;5103188;28;20034;-68
2022/05/29 05:53:58;;;;;;;3.55;1.20;;;;;;;;;;5097597;28;20028;-68
2022/05/29 05:56:23;;;;;;;2.45;1.15;;;;;;;;;;5106736;28;20028;-68
2022/05/29 05:58:48;;;;;;;3.17;1.00;;;;;;;;;;5106632;28;20020;-69
2022/05/29 06:01:15;;;;;;;2.38;1.30;;;;;;;;;;5105163;28;20040;-68
2022/05/29 06:03:41;;;;;;;4.93;1.25;;;;;;;;;;5107257;28;20068;-68
2022/05/29 06:06:06;;;;;;;2.70;1.10;;;;;;;;;;5102635;28;20036;-69
2022/05/29 06:08:32;;;;;;;2.10;1.00;;;;;;;;;;5103325;28;20494;-68
2022/05/29 06:10:57;;;;;;;4.57;1.17;;;;;;;;;;5104712;28;20442;-68
2022/05/29 06:13:22;;;;;;;3.83;1.35;;;;;;;;;;5101601;28;20026;-68
2022/05/29 06:15:48;;;;;;;3.53;1.20;;;;;;;;;;5106151;28;20051;-69
2022/05/29 06:18:14;;;;;;;2.13;1.20;;;;;;;;;;5100620;28;20459;-68
2022/05/29 06:20:39;;;;;;;2.17;1.10;;;;;;;;;;5103209;28;20491;-68
2022/05/29 06:23:05;;;;;;;3.47;1.10;;;;;;;;;;5102747;28;20027;-68
2022/05/29 06:25:30;;;;;;;3.55;1.20;;;;;;;;;;5102221;28;20015;-68
2022/05/29 06:27:55;;;;;;;3.40;1.15;;;;;;;;;;5104429;28;20028;-68
2022/05/29 06:30:20;;;;;;;3.42;1.00;;;;;;;;;;5099537;28;20026;-68
2022/05/29 06:32:46;;;;;;;4.35;1.35;;;;;;;;;;5098917;28;20438;-68
2022/05/29 06:35:12;;;;;;;3.63;1.20;;;;;;;;;;5102702;28;20019;-68
2022/05/29 06:37:38;;;;;;;3.33;1.08;;;;;;;;;;5106555;28;20103;-68
2022/05/29 06:40:04;;;;;;;5.78;1.52;;;;;;;;;;5102817;28;20123;-68
2022/05/29 06:42:29;;;;;;;4.68;1.10;;;;;;;;;;5102245;28;20463;-68
2022/05/29 06:44:55;;;;;;;3.58;1.10;;;;;;;;;;5100875;28;20038;-68
2022/05/29 06:47:20;;;;;;;3.80;1.00;;;;;;;;;;5106204;28;20027;-68
2022/05/29 06:49:51;;;;;;;3.63;1.20;;;;;;;;;;5107827;28;20034;-68
2022/05/29 06:52:16;;;;;;;2.95;1.30;;;;;;;;;;5114299;28;20034;-68
2022/05/29 06:54:42;;;;;;;2.55;1.60;;;;;;;;;;5113964;28;20020;-68
2022/05/29 06:57:07;;;;;;;3.05;1.15;;;;;;;;;;5110980;28;20080;-68
2022/05/29 07:06:59;;;;;;;4.40;1.30;;;;;;;;;;5101659;28;20031;-69
2022/05/29 07:07:53;;;;;;;3.20;1.20;;;;;;;;;;5104053;28;20031;-68
2022/05/29 07:10:18;;;;;;;9.60;1.70;;;;;;;;;;5107047;28;20035;-68
2022/05/29 07:12:43;;;;;;;3.95;1.40;;;;;;;;;;5108230;28;20098;-68
2022/05/29 07:15:09;;;;;;;2.97;1.52;;;;;;;;;;5110054;28;20116;-69
2022/05/29 07:17:35;;;;;;;2.45;1.40;;;;;;;;;;5111627;28;20547;-68
2022/05/29 07:20:00;;;;;;;2.83;1.40;;;;;;;;;;5109501;28;20035;-68
2022/05/29 07:22:26;;;;;;;2.75;1.30;;;;;;;;;;5101901;28;20099;-68
2022/05/29 07:24:52;;;;;;;4.70;2.53;;;;;;;;;;5110784;28;20035;-68
2022/05/29 07:27:17;;;;;;;4.22;2.15;;;;;;;;;;5113606;28;20008;-68
2022/05/29 07:29:42;;;;;;;6.53;1.85;;;;;;;;;;5112995;28;20023;-68
2022/05/29 07:32:09;;;;;;;4.90;2.05;;;;;;;;;;5112934;28;20036;-68
2022/05/29 07:34:34;;;;;;;4.28;1.92;;;;;;;;;;5102447;28;20012;-68
2022/05/29 07:37:03;;;;;;;4.38;1.80;;;;;;;;;;5113636;28;20432;-68
2022/05/29 07:39:28;;;;;;;7.72;4.38;;;;;;;;;;5108493;28;20118;-68
2022/05/29 07:44:38;;;;;;;4.03;1.77;;;;;;;;;;5099829;28;20446;-69
2022/05/29 07:47:03;;;;;;;5.13;1.60;;;;;;;;;;5107911;28;20035;-69
2022/05/29 07:49:28;;;;;;;6.85;1.38;;;;;;;;;;5113071;28;20449;-69
2022/05/29 07:51:54;;;;;;;6.95;1.95;;;;;;;;;;5111487;28;20038;-68
2022/05/29 07:54:20;;;;;;;5.32;1.10;;;;;;;;;;5112501;28;20035;-68
2022/05/29 07:56:45;;;;;;;6.22;1.10;;;;;;;;;;5108829;28;20041;-68
2022/05/29 07:59:14;;;;;;;5.47;1.20;;;;;;;;;;5111042;28;20020;-69
2022/05/29 08:01:39;;;;;;;6.00;1.27;;;;;;;;;;5108631;28;20035;-69
2022/05/29 08:04:04;;;;;;;6.32;1.10;;;;;;;;;;5103147;28;20023;-68
2022/05/29 08:06:30;;;;;;;3.28;1.40;;;;;;;;;;5106899;28;20020;-68
2022/05/29 08:08:55;;;;;;;2.92;0.95;;;;;;;;;;5106220;28;20106;-69
2022/05/29 08:11:20;;;;;;;2.88;1.00;;;;;;;;;;5110247;28;20020;-68
2022/05/29 08:13:45;;;;;;;5.93;1.35;;;;;;;;;;5104126;28;20094;-68
2022/05/29 08:16:11;;;;;;;5.55;1.15;;;;;;;;;;5104664;28;20055;-69
2022/05/29 08:18:37;;;;;;;2.42;0.98;;;;;;;;;;5104239;28;20023;-69
2022/05/29 08:21:02;;;;;;;2.97;1.15;;;;;;;;;;5112077;28;20031;-69
2022/05/29 08:23:27;;;;;;;4.53;0.95;;;;;;;;;;5107724;28;20028;-68
2022/05/29 08:31:41;;;;;;;2.70;1.00;;;;;;;;;;5014405;28;20041;-69
2022/05/29 08:34:06;;;;;;;4.40;1.10;;;;;;;;;;5076086;28;20028;-70
2022/05/29 08:36:31;;;;;;;6.40;1.50;;;;;;;;;;5116820;28;20436;-69
2022/05/29 08:38:56;;;;;;;5.82;1.20;;;;;;;;;;5116727;28;20042;-68
2022/05/29 08:41:42;;;;;;;5.20;1.27;;;;;;;;;;5116604;28;20031;-69
2022/05/29 08:44:11;;;;;;;4.10;1.00;;;;;;;;;;5116141;28;20033;-69
2022/05/29 08:46:38;;;;;;;5.25;1.30;;;;;;;;;;5116652;28;20024;-69
2022/05/29 08:49:04;;;;;;;3.13;1.20;;;;;;;;;;5116418;28;20027;-69
2022/05/29 08:51:44;;;;;;;4.65;1.10;;;;;;;;;;5116637;28;20042;-69
2022/05/29 08:54:12;;;;;;;4.78;1.13;;;;;;;;;;5116367;28;20035;-69
2022/05/29 08:56:57;;;;;;;3.17;0.80;;;;;;;;;;5116533;28;20088;-69
2022/05/29 08:59:41;;;;;;;5.32;1.23;;;;;;;;;;5115198;28;20511;-69
2022/05/29 09:02:09;;;;;;;3.58;1.00;;;;;;;;;;5105355;28;20052;-69
2022/05/29 09:04:41;;;;;;;2.58;0.90;;;;;;;;;;5115706;28;20467;-69
2022/05/29 09:07:07;;;;;;;4.35;1.10;;;;;;;;;;5116017;28;20066;-69
2022/05/29 09:09:42;;;;;;;3.78;1.10;;;;;;;;;;5116059;28;20031;-69
2022/05/29 09:12:11;;;;;;;3.63;1.00;;;;;;;;;;5114434;28;20030;-69
2022/05/29 09:14:47;;;;;;;2.45;0.93;;;;;;;;;;5108505;28;20035;-69
2022/05/29 09:17:24;;;;;;;3.85;1.15;;;;;;;;;;5116139;28;20045;-69
2022/05/29 09:20:19;;;;;;;4.10;1.00;;;;;;;;;;5097414;28;20035;-69
2022/05/29 09:22:44;;;;;;;3.45;1.13;;;;;;;;;;5091201;28;20039;-69
2022/05/29 09:25:10;;;;;;;3.28;0.93;;;;;;;;;;5115916;28;20106;-69
2022/05/29 09:27:37;;;;;;;2.60;0.98;;;;;;;;;;5115758;28;20047;-68
2022/05/29 09:30:03;;;;;;;2.60;0.95;;;;;;;;;;5115408;28;20019;-69
2022/05/29 09:32:31;;;;;;;3.60;0.95;;;;;;;;;;5115318;28;20482;-68
2022/05/29 09:35:01;;;;;;;4.47;0.95;;;;;;;;;;5108450;28;20024;-69
2022/05/29 09:37:32;;;;;;;3.35;0.90;;;;;;;;;;5115235;28;20441;-68
2022/05/29 09:39:59;;;;;;;4.25;0.85;;;;;;;;;;5105646;28;20423;-69
2022/05/29 09:42:26;;;;;;;2.75;0.80;;;;;;;;;;5115517;28;20062;-68
2022/05/29 09:45:12;;;;;;;5.13;0.98;;;;;;;;;;5097507;28;20036;-69
2022/05/29 09:50:22;;;;;;;;;;;;;;;;;;5110375;28;20026;-69
2022/05/29 09:52:48;;;;;;;2.03;0.93;;;;;;;;;;5103236;28;20337;-69
2022/05/29 09:55:19;;;;;;;3.58;1.10;;;;;;;;;;5115338;28;20058;-68
2022/05/29 09:57:52;;;;;;;2.40;0.80;;;;;;;;;;5103787;28;20035;-68
2022/05/29 10:00:29;;;;;;;2.58;0.98;;;;;;;;;;5102096;28;20078;-69
2022/05/29 10:02:55;;;;;;;1.65;0.90;;;;;;;;;;5114887;28;20522;-68
2022/05/29 10:05:25;;;;;;;7.82;1.30;;;;;;;;;;5115071;28;20055;-68
2022/05/29 10:07:51;;;;;;;7.43;1.38;;;;;;;;;;5101716;28;20035;-68
2022/05/29 10:10:22;;;;;;;3.03;1.00;;;;;;;;;;5114596;28;20023;-68
2022/05/29 10:12:48;;;;;;;4.50;1.08;;;;;;;;;;5114438;28;20463;-68
2022/05/29 10:15:33;;;;;;;3.58;1.40;;;;;;;;;;5114688;28;20047;-68
2022/05/29 10:18:00;;;;;;;3.03;1.02;;;;;;;;;;5107341;28;20024;-68
2022/05/29 10:20:26;;;;;;;5.15;1.00;;;;;;;;;;5114569;28;20050;-68
2022/05/29 10:22:55;;;;;;;4.65;1.10;;;;;;;;;;5114716;28;20019;-68
2022/05/29 10:25:22;;;;;;;2.92;0.90;;;;;;;;;;5114712;28;20039;-68
2022/05/29 10:27:49;;;;;;;4.43;1.10;;;;;;;;;;5114683;28;20032;-68
2022/05/29 10:30:27;;;;;;;4.93;1.10;;;;;;;;;;5114163;28;20022;-68
2022/05/29 10:32:58;;;;;;;5.93;1.20;;;;;;;;;;5092188;28;20491;-69
2022/05/29 10:35:28;;;;;;;3.78;0.93;;;;;;;;;;5101669;28;20412;-68
2022/05/29 10:37:53;;;;;;;4.65;1.15;;;;;;;;;;5114359;28;20022;-68
2022/05/29 10:40:22;;;;;;;4.30;1.15;;;;;;;;;;5111849;28;20039;-68
2022/05/29 10:42:49;;;;;;;2.50;0.90;;;;;;;;;;5114435;28;20051;-68
2022/05/29 10:45:33;;;;;;;7.53;1.13;;;;;;;;;;5113463;28;20081;-68
2022/05/29 10:48:17;;;;;;;2.97;1.13;;;;;;;;;;5099027;28;20463;-68
2022/05/29 10:51:01;;;;;;;4.50;1.02;;;;;;;;;;5114073;28;20104;-69
2022/05/29 10:53:26;;;;;;;;;;;;;;;;;;5114679;28;20035;-68
2022/05/29 10:55:56;;;;;;;5.13;1.00;;;;;;;;;;5113982;28;19914;-69
2022/05/29 10:58:31;;;;;;;5.00;1.30;;;;;;;;;;5113603;28;20409;-68
2022/05/29 11:04:16;;;;;;;2.65;0.90;;;;;;;;;;5053113;28;20075;-68
2022/05/29 11:06:42;;;;;;;6.03;1.30;;;;;;;;;;5106702;28;20028;-68
2022/05/29 11:09:25;;;;;;;2.78;0.88;;;;;;;;;;5098008;28;20161;-69
2022/05/29 11:11:55;;;;;;;5.43;1.30;;;;;;;;;;5113624;28;20471;-69
2022/05/29 11:14:44;;;;;;;2.25;0.80;;;;;;;;;;5113801;28;20046;-68
2022/05/29 11:17:12;;;;;;;5.25;1.10;;;;;;;;;;5113672;28;20072;-68
2022/05/29 11:20:06;;;;;;;3.90;1.30;;;;;;;;;;5086288;28;20036;-68
2022/05/29 11:22:47;;;;;;;2.05;1.05;;;;;;;;;;5083173;28;20058;-68
2022/05/29 11:25:17;;;;;;;3.53;1.30;;;;;;;;;;5102385;28;20024;-68
2022/05/29 11:28:04;;;;;;;1.80;0.85;;;;;;;;;;5098684;28;20020;-68
2022/05/29 11:30:35;;;;;;;4.13;1.10;;;;;;;;;;5107828;28;20028;-68
2022/05/29 11:33:21;;;;;;;5.03;1.10;;;;;;;;;;5113615;28;20061;-69
2022/05/29 11:35:46;;;;;;;3.50;0.93;;;;;;;;;;5041990;28;20115;-68
2022/05/29 11:38:14;;;;;;;4.90;1.20;;;;;;;;;;5111483;28;20031;-69
2022/05/29 11:40:47;;;;;;;4.28;0.95;;;;;;;;;;5105098;28;20035;-68
2022/05/29 11:43:25;;;;;;;6.15;1.80;;;;;;;;;;5104191;28;20023;-68
2022/05/29 11:51:28;;;;;;;2.60;0.90;;;;;;;;;;5106196;28;20035;-68
2022/05/29 11:54:14;;;;;;;5.97;0.90;;;;;;;;;;5104333;28;20024;-68
2022/05/29 11:56:45;;;;;;;4.50;1.15;;;;;;;;;;5087199;28;20569;-68
2022/05/29 11:59:29;;;;;;;2.83;1.30;;;;;;;;;;5103238;28;20032;-69
2022/05/29 12:02:07;;;;;;;7.32;1.40;;;;;;;;;;5108400;28;20081;-68
2022/05/29 12:04:34;;;;;;;3.33;1.30;;;;;;;;;;5106907;28;20122;-68
2022/05/29 12:07:17;;;;;;;6.18;1.85;;;;;;;;;;5105089;28;20102;-68
2022/05/29 12:09:43;;;;;;;3.75;1.63;;;;;;;;;;5107947;28;20028;-68
2022/05/29 12:12:16;;;;;;;4.22;1.30;;;;;;;;;;5109345;28;20076;-68
2022/05/29 12:14:41;;;;;;;4.85;1.25;;;;;;;;;;5111531;28;20034;-68
2022/05/29 12:17:28;;;;;;;3.97;1.27;;;;;;;;;;5110397;28;20035;-69
2022/05/29 12:20:01;;;;;;;4.40;1.30;;;;;;;;;;5104918;28;20043;-69
2022/05/29 12:22:30;;;;;;;4.45;1.40;;;;;;;;;;5104930;28;20089;-69
2022/05/29 12:24:56;;;;;;;7.82;1.45;;;;;;;;;;5104240;28;20024;-68
2022/05/29 12:27:23;;;;;;;3.22;1.20;;;;;;;;;;5107911;28;20081;-68
2022/05/29 12:30:10;;;;;;;3.25;1.33;;;;;;;;;;5104879;28;20024;-68
2022/05/29 12:32:35;;;;;;;5.88;1.20;;;;;;;;;;5102140;28;20032;-69
2022/05/29 12:35:16;;;;;;;3.33;1.20;;;;;;;;;;5105013;28;20035;-69
2022/05/29 12:37:44;;;;;;;4.80;1.30;;;;;;;;;;5107227;28;20031;-69
2022/05/29 12:40:15;;;;;;;2.90;1.13;;;;;;;;;;5109185;28;20063;-68
2022/05/29 12:42:56;;;;;;;3.38;1.25;;;;;;;;;;5103115;28;20426;-68
2022/05/29 12:45:33;;;;;;;4.03;1.65;;;;;;;;;;5103359;28;20048;-68
2022/05/29 12:47:59;;;;;;;4.22;1.23;;;;;;;;;;5112774;28;20032;-69
2022/05/29 12:50:33;;;;;;;9.23;1.40;;;;;;;;;;5111425;28;21692;-68
2022/05/29 12:53:11;;;;;;;6.05;1.27;;;;;;;;;;5086036;28;20352;-68
2022/05/29 12:55:49;;;;;;;3.90;1.20;;;;;;;;;;5107430;28;20024;-69
2022/05/29 12:58:26;;;;;;;4.32;1.20;;;;;;;;;;5113452;28;20027;-69
2022/05/29 13:01:01;;;;;;;3.72;1.10;;;;;;;;;;5109944;28;20038;-68
2022/05/29 13:03:26;;;;;;;4.63;1.45;;;;;;;;;;5105574;28;20052;-68
2022/05/29 13:06:04;;;;;;;2.65;1.20;;;;;;;;;;5109958;28;20062;-68
2022/05/29 13:08:48;;;;;;;3.88;1.20;;;;;;;;;;5082773;28;20378;-68
2022/05/29 13:11:14;;;;;;;;;;;;;;;;;;5105793;28;20472;-69
2022/05/29 13:13:43;;;;;;;3.40;0.90;;;;;;;;;;5107560;28;20055;-68
2022/05/29 13:16:25;;;;;;;2.80;1.00;;;;;;;;;;5113351;28;20032;-68
2022/05/29 13:21:56;;;;;;;3.80;1.05;;;;;;;;;;5109382;28;20466;-68
2022/05/29 13:24:26;;;;;;;3.72;0.90;;;;;;;;;;5107794;28;20054;-68
2022/05/29 13:27:09;;;;;;;3.08;1.10;;;;;;;;;;5100752;28;20085;-69
2022/05/29 13:29:43;;;;;;;5.97;1.10;;;;;;;;;;5107643;28;20068;-69
2022/05/29 13:32:14;;;;;;;2.72;0.98;;;;;;;;;;5105742;28;20030;-69
2022/05/29 13:34:50;;;;;;;3.78;1.23;;;;;;;;;;5108232;28;20034;-68
2022/05/29 13:37:21;;;;;;;2.60;0.95;;;;;;;;;;5110704;28;20858;-69
2022/05/29 13:39:58;;;;;;;2.78;1.10;;;;;;;;;;5104919;28;20031;-68
2022/05/29 13:42:27;;;;;;;2.63;0.95;;;;;;;;;;5110266;28;20035;-68
2022/05/29 13:44:52;;;;;;;3.42;1.10;;;;;;;;;;5115385;28;20020;-68
2022/05/29 13:47:22;;;;;;;3.28;1.25;;;;;;;;;;5115624;28;20046;-68
2022/05/29 13:49:51;;;;;;;3.00;1.23;;;;;;;;;;5103868;28;20539;-68
2022/05/29 13:52:22;;;;;;;3.15;0.90;;;;;;;;;;5106584;28;20032;-69
2022/05/29 13:55:06;;;;;;;3.67;1.20;;;;;;;;;;5099677;28;20020;-69
2022/05/29 14:06:15;;;;;;;2.00;0.82;;;;;;;;;;5108686;28;20030;-68
2022/05/29 14:08:49;;;;;;;4.05;1.15;;;;;;;;;;5107815;28;20032;-68
2022/05/29 14:11:15;;;;;;;2.75;0.90;;;;;;;;;;5102590;28;20383;-69
2022/05/29 14:14:03;;;;;;;2.53;0.80;;;;;;;;;;5106455;28;20027;-68
2022/05/29 14:16:28;;;;;;;2.40;0.80;;;;;;;;;;5098747;28;20028;-68
2022/05/29 14:18:56;;;;;;;3.72;1.00;;;;;;;;;;5106905;28;20108;-68
2022/05/29 14:21:31;;;;;;;2.97;0.90;;;;;;;;;;5109894;28;20040;-68
2022/05/29 14:24:05;;;;;;;1.75;0.80;;;;;;;;;;5107561;28;20050;-69
2022/05/29 14:29:43;;;;;;;3.15;0.95;;;;;;;;;;5108279;28;20032;-69
2022/05/29 14:32:17;;;;;;;3.83;1.00;;;;;;;;;;5104476;28;20024;-68
2022/05/29 14:34:45;;;;;;;2.10;0.75;;;;;;;;;;5106121;28;20023;-68
2022/05/29 14:37:26;;;;;;;5.05;0.90;;;;;;;;;;5102901;28;20052;-68
2022/05/29 14:40:04;;;;;;;4.78;1.48;;;;;;;;;;5101570;28;20024;-68
2022/05/29 14:42:33;;;;;;;2.42;1.00;;;;;;;;;;5103505;28;20428;-69
2022/05/29 14:45:03;;;;;;;2.30;1.15;;;;;;;;;;5106355;28;20024;-68
2022/05/29 14:47:37;;;;;;;4.97;1.10;;;;;;;;;;5098630;28;20028;-68
2022/05/29 14:50:14;;;;;;;5.05;1.20;;;;;;;;;;5101199;28;20039;-69
2022/05/29 14:52:46;;;;;;;2.30;1.00;;;;;;;;;;5102423;28;20056;-69
2022/05/29 14:55:11;;;;;;;5.10;0.90;;;;;;;;;;5110955;28;20549;-69
2022/05/29 14:57:45;;;;;;;3.05;1.00;;;;;;;;;;5103783;28;20115;-68
2022/05/29 15:00:39;;;;;;;3.67;1.00;;;;;;;;;;5113141;28;20058;-69
2022/05/29 15:03:18;;;;;;;5.05;1.13;;;;;;;;;;5107801;28;20067;-69
2022/05/29 15:05:48;;;;;;;4.07;1.20;;;;;;;;;;5097706;28;20028;-69
2022/05/29 15:11:01;;;;;;;5.03;1.02;;;;;;;;;;5100500;28;20065;-68
2022/05/29 15:14:04;;;;;;;4.68;1.30;;;;;;;;;;5108721;28;20119;-68
2022/05/29 15:16:29;;;;;;;4.78;1.40;;;;;;;;;;5104114;28;20031;-68
2022/05/29 15:18:54;;;;;;;5.78;1.38;;;;;;;;;;5112993;28;20157;-69
2022/05/29 15:24:11;;;;;;;4.30;1.00;;;;;;;;;;5111015;28;20387;-69
2022/05/29 15:26:38;;;;;;;4.38;1.17;;;;;;;;;;5109264;28;20028;-68
2022/05/29 15:29:09;;;;;;;2.80;1.20;;;;;;;;;;5108390;28;20135;-68
2022/05/29 15:31:35;;;;;;;3.58;1.15;;;;;;;;;;5101018;28;20108;-68
2022/05/29 15:34:06;;;;;;;4.43;1.05;;;;;;;;;;5102877;28;20032;-68
2022/05/29 15:36:31;;;;;;;3.60;1.25;;;;;;;;;;5100490;28;20058;-69
2022/05/29 15:39:11;;;;;;;3.50;1.13;;;;;;;;;;5099099;28;20032;-68
2022/05/29 15:41:56;;;;;;;4.45;1.20;;;;;;;;;;5103232;28;20372;-69
2022/05/29 15:44:21;;;;;;;;;;;;;;;;;;5113579;28;20554;-69
2022/05/29 15:47:04;;;;;;;2.40;0.88;;;;;;;;;;5112816;28;19903;-68
2022/05/29 15:49:37;;;;;;;4.32;1.35;;;;;;;;;;5112272;28;20024;-68
2022/05/29 15:52:11;;;;;;;2.65;1.05;;;;;;;;;;5104969;28;20103;-68
2022/05/29 15:54:36;;;;;;;;;;;;;;;;;;5096836;28;20120;-68